North Fort Myers, Florida
Current Conditions -  °F | °C
As of 3:53 AM on Saturday 25 Oct 2014 (Local Time) from KFMY Reporting Station
Clear Clear  
Wind Chill: 65°   Ceiling: Unl
Heat Index: 65°   Visibility: 10mi
Dew Point: 58°   Wind: 9mph
Humidity: 78%   Direction: 30°NNE
Pressure: 29.9"   Gusts: NA
Location:  26.68°N, 81.9°W
Report Text: KFMY 250753Z AUTO 03008KT 10SM CLR 18/14 A2990 RMK AO2 SLP127 T01830144
Loading
Personal Weather Stations






























Interactive Weather Map
Tropical Storm Tracking
New forecast layout! Learn more

10-Day Weather Forecast

Advertisements
Track Severe Weather on mobile